Time;durP1;ratioP1;P1;durP2;ratioP2;P2;SDS_P1;SDS_P2;PMS_P1;PMS_P2;Temp;Humidity;BMP_temperature;BMP_pressure;BME280_temperature;BME280_humidity;BME280_pressure;Samples;Min_cycle;Max_cycle;Signal;HPM_P1;HPM_P2
2022/01/19 00:01:29;;;;;;;21.15;7.95;;;;;;;2.31;100.00;102089.17;3561265;81;98877;-84
2022/01/19 00:06:32;;;;;;;23.00;9.17;;;;;;;2.32;100.00;102088.07;3576408;81;98815;-84
2022/01/19 00:11:33;;;;;;;25.60;7.92;;;;;;;2.33;100.00;102089.69;3558905;81;98572;-84
2022/01/19 00:16:34;;;;;;;23.07;8.97;;;;;;;2.32;100.00;102080.75;3566301;81;32143;-84
2022/01/19 00:21:34;;;;;;;19.93;7.80;;;;;;;2.34;100.00;102069.04;3553892;81;98733;-84
2022/01/19 00:26:35;;;;;;;18.83;6.73;;;;;;;2.34;100.00;102056.81;3554213;81;98714;-84
2022/01/19 00:31:36;;;;;;;18.27;7.35;;;;;;;2.37;100.00;102063.05;3550458;81;98854;-83
2022/01/19 00:36:37;;;;;;;18.53;7.40;;;;;;;2.40;100.00;102050.24;3561218;81;98884;-84
2022/01/19 00:41:38;;;;;;;21.37;7.27;;;;;;;2.42;100.00;102043.17;3560225;81;98911;-84
2022/01/19 00:46:39;;;;;;;20.33;5.93;;;;;;;2.43;100.00;102028.48;3549128;81;29600;-84
2022/01/19 00:51:40;;;;;;;19.87;5.87;;;;;;;2.45;100.00;102027.64;3559522;81;98638;-84
2022/01/19 00:56:41;;;;;;;16.43;5.80;;;;;;;2.46;100.00;102040.16;3582378;81;98680;-84
2022/01/19 01:01:41;;;;;;;16.67;6.00;;;;;;;2.47;100.00;102043.14;3554298;81;98839;-84
2022/01/19 01:06:42;;;;;;;16.83;6.33;;;;;;;2.47;100.00;102040.42;3570994;81;98970;-84
2022/01/19 01:12:01;;;;;;;14.23;5.67;;;;;;;2.45;100.00;102028.47;3550461;81;98920;-85
2022/01/19 01:17:14;;;;;;;15.03;6.22;;;;;;;2.46;100.00;102018.42;3567820;81;98785;-85
2022/01/19 01:22:13;;;;;;;18.65;6.08;;;;;;;2.49;100.00;102009.69;3552813;81;98738;-84
2022/01/19 01:27:13;;;;;;;22.50;6.50;;;;;;;2.51;100.00;102008.88;3564525;80;98710;-85
2022/01/19 01:32:14;;;;;;;18.73;7.57;;;;;;;2.53;100.00;101996.63;3560239;81;98655;-84
2022/01/19 01:37:15;;;;;;;18.70;6.50;;;;;;;2.55;100.00;101973.21;3570309;81;98885;-85
2022/01/19 01:42:19;;;;;;;20.60;8.20;;;;;;;2.56;100.00;101951.19;3554127;81;98775;-85
2022/01/19 01:47:21;;;;;;;18.32;6.55;;;;;;;2.59;100.00;101941.66;3537404;81;99313;-84
2022/01/19 01:57:44;;;;;;;17.57;6.75;;;;;;;2.63;100.00;101903.30;3492411;83;98528;-85
2022/01/19 02:02:47;;;;;;;19.27;6.57;;;;;;;2.65;100.00;101898.37;3487114;83;99044;-84
2022/01/19 02:08:19;;;;;;;22.58;7.22;;;;;;;2.67;100.00;101873.87;3490679;83;99249;-84
2022/01/19 02:23:39;;;;;;;22.75;8.20;;;;;;;2.77;100.00;101905.03;3500720;82;98800;-84
2022/01/19 02:29:03;;;;;;;19.62;7.62;;;;;;;2.82;100.00;101896.82;3480219;83;98885;-84
2022/01/19 02:49:41;;;;;;;19.02;7.30;;;;;;;2.95;100.00;101853.95;3550092;81;98918;-84
2022/01/19 02:54:42;;;;;;;17.03;6.10;;;;;;;2.98;100.00;101849.30;3576776;81;98891;-84
2022/01/19 03:10:05;;;;;;;18.87;7.47;;;;;;;3.03;100.00;101813.06;3554968;81;98923;-84
2022/01/19 03:15:11;;;;;;;16.67;7.22;;;;;;;3.04;100.00;101811.95;3567878;81;98719;-84
2022/01/19 03:20:13;;;;;;;18.17;7.17;;;;;;;3.04;100.00;101813.31;3552040;81;99072;-85
2022/01/19 03:25:14;;;;;;;15.55;6.85;;;;;;;3.05;100.00;101804.05;3577165;81;98874;-84
2022/01/19 03:30:17;;;;;;;23.27;8.47;;;;;;;3.05;100.00;101787.73;3554129;81;99018;-84
2022/01/19 03:35:18;;;;;;;18.23;6.55;;;;;;;3.05;100.00;101779.57;3570945;80;98926;-85
2022/01/19 03:40:18;;;;;;;16.80;7.17;;;;;;;3.07;100.00;101776.03;3559650;81;98437;-85
2022/01/19 03:45:19;;;;;;;16.73;6.97;;;;;;;3.06;100.00;101776.56;3555518;81;99082;-84
2022/01/19 03:50:20;;;;;;;17.03;6.73;;;;;;;3.08;100.00;101770.30;3569088;81;99258;-84
2022/01/19 03:55:22;;;;;;;20.07;6.47;;;;;;;3.09;100.00;101756.13;3552095;81;98889;-84
2022/01/19 04:00:23;;;;;;;19.83;7.53;;;;;;;3.10;100.00;101749.04;3569224;81;99210;-84
2022/01/19 04:05:37;;;;;;;20.77;7.03;;;;;;;3.11;100.00;101749.30;3564834;81;98906;-84
2022/01/19 04:10:26;;;;;;;20.00;7.40;;;;;;;3.13;100.00;101747.64;3564277;81;99196;-84
2022/01/19 04:15:28;;;;;;;19.57;7.33;;;;;;;3.13;100.00;101736.23;3579148;81;98709;-85
2022/01/19 04:20:29;;;;;;;15.43;7.40;;;;;;;3.16;100.00;101726.09;3561893;81;98730;-84
2022/01/19 04:25:30;;;;;;;21.30;7.80;;;;;;;3.16;100.00;101710.34;3568440;81;98936;-84
2022/01/19 04:30:30;;;;;;;15.27;7.07;;;;;;;3.16;100.00;101706.27;3562364;80;98795;-83
2022/01/19 04:35:44;;;;;;;18.13;7.70;;;;;;;3.16;100.00;101694.81;3555247;80;98771;-84
2022/01/19 04:46:20;;;;;;;21.57;9.18;;;;;;;3.20;100.00;101698.56;3560360;81;99034;-84
2022/01/19 05:01:54;;;;;;;17.87;7.60;;;;;;;3.20;100.00;101680.88;3554286;81;98834;-85
2022/01/19 05:06:54;;;;;;;22.90;8.58;;;;;;;3.21;100.00;101677.05;3570368;81;98920;-84
2022/01/19 05:17:11;;;;;;;21.85;8.30;;;;;;;3.18;100.00;101669.47;3578363;81;99290;-84
2022/01/19 05:22:12;;;;;;;24.25;9.45;;;;;;;3.18;100.00;101678.99;3556982;81;98800;-84
2022/01/19 05:27:13;;;;;;;21.97;7.53;;;;;;;3.17;100.00;101671.94;3557610;81;99104;-84
2022/01/19 05:32:14;;;;;;;23.60;7.80;;;;;;;3.17;100.00;101668.44;3556255;81;99288;-84
2022/01/19 05:37:15;;;;;;;19.13;8.00;;;;;;;3.17;100.00;101664.35;3554412;81;98840;-84
2022/01/19 05:42:16;;;;;;;24.37;7.97;;;;;;;3.16;100.00;101653.22;3567383;80;98866;-84
2022/01/19 05:47:17;;;;;;;21.17;8.20;;;;;;;3.16;100.00;101659.45;3551076;81;98791;-84
2022/01/19 05:52:19;;;;;;;21.77;8.30;;;;;;;3.14;100.00;101645.36;3514446;82;98550;-84
2022/01/19 05:57:20;;;;;;;24.00;9.13;;;;;;;3.16;100.00;101649.14;3521839;82;98732;-84
2022/01/19 06:02:21;;;;;;;30.40;10.87;;;;;;;3.16;100.00;101641.77;3513327;82;98887;-84
2022/01/19 06:07:28;;;;;;;19.20;7.97;;;;;;;3.15;100.00;101642.88;3528346;82;99082;-84
2022/01/19 06:12:24;;;;;;;22.90;10.00;;;;;;;3.15;100.00;101635.27;3513420;82;98804;-84
2022/01/19 06:17:25;;;;;;;26.63;9.60;;;;;;;3.15;100.00;101635.27;3520745;81;98886;-83
2022/01/19 06:22:26;;;;;;;25.37;10.20;;;;;;;3.14;100.00;101616.80;3509837;82;98821;-84
2022/01/19 06:27:27;;;;;;;23.10;8.37;;;;;;;3.13;100.00;101619.27;3518298;82;98914;-85
2022/01/19 06:32:27;;;;;;;19.97;8.57;;;;;;;3.13;100.00;101604.30;3517308;81;98819;-84
2022/01/19 06:37:28;;;;;;;17.62;7.75;;;;;;;3.12;100.00;101610.83;3526705;82;98969;-84
2022/01/19 06:42:29;;;;;;;21.97;8.07;;;;;;;3.12;100.00;101610.03;3514366;82;99306;-84
2022/01/19 06:47:31;;;;;;;20.60;7.80;;;;;;;3.13;100.00;101608.92;3541296;82;99153;-84
2022/01/19 06:52:32;;;;;;;16.73;8.05;;;;;;;3.12;100.00;101604.59;3603419;80;98300;-85
2022/01/19 06:57:33;;;;;;;20.23;9.10;;;;;;;3.11;100.00;101596.98;3603762;80;99217;-85
2022/01/19 07:02:34;;;;;;;23.60;10.40;;;;;;;3.11;100.00;101590.75;3606333;81;98685;-85
2022/01/19 07:07:35;;;;;;;27.80;10.87;;;;;;;3.11;100.00;101579.87;3610632;81;99448;-85
2022/01/19 07:12:36;;;;;;;20.20;9.33;;;;;;;3.11;100.00;101569.78;3605099;81;98942;-85
2022/01/19 07:17:37;;;;;;;18.13;8.60;;;;;;;3.08;100.00;101563.59;3614911;80;98787;-84
2022/01/19 07:22:38;;;;;;;21.17;9.37;;;;;;;3.09;100.00;101569.28;3611258;81;98723;-86
2022/01/19 07:27:39;;;;;;;17.37;8.50;;;;;;;3.09;100.00;101558.41;3618482;80;98668;-85
2022/01/19 07:32:40;;;;;;;23.40;8.97;;;;;;;3.09;100.00;101546.16;3596000;81;98763;-85
2022/01/19 07:37:41;;;;;;;16.87;9.00;;;;;;;3.06;100.00;101538.59;3607488;81;98880;-85
2022/01/19 07:42:42;;;;;;;23.57;10.90;;;;;;;3.07;100.00;101533.40;3600510;81;99172;-85
2022/01/19 07:47:43;;;;;;;18.53;9.73;;;;;;;3.06;100.00;101524.99;3618546;80;99038;-85
2022/01/19 07:52:46;;;;;;;22.22;11.10;;;;;;;3.06;100.00;101517.41;3607348;80;98618;-85
2022/01/19 07:57:50;;;;;;;23.20;9.15;;;;;;;3.05;100.00;101511.15;3615027;81;98912;-84
2022/01/19 08:02:50;;;;;;;20.55;9.68;;;;;;;3.07;100.00;101501.34;3597034;80;98653;-85
2022/01/19 08:07:50;;;;;;;22.23;10.20;;;;;;;3.08;100.00;101497.50;3619402;80;99172;-85
2022/01/19 08:12:52;;;;;;;25.07;9.33;;;;;;;3.11;100.00;101496.91;3612312;80;99180;-85
2022/01/19 08:17:53;;;;;;;24.23;10.20;;;;;;;3.13;100.00;101495.51;3614797;81;98790;-85
2022/01/19 08:22:54;;;;;;;21.17;9.37;;;;;;;3.16;100.00;101484.58;3612400;81;98531;-85
2022/01/19 08:27:55;;;;;;;26.10;10.37;;;;;;;3.17;100.00;101462.49;3623407;81;98750;-85
2022/01/19 08:32:56;;;;;;;23.30;10.83;;;;;;;3.20;100.00;101452.92;3607319;80;98926;-85
2022/01/19 08:37:56;;;;;;;22.90;10.57;;;;;;;3.22;100.00;101446.64;3619948;81;99302;-85
2022/01/19 08:42:57;;;;;;;26.90;10.07;;;;;;;3.26;100.00;101444.91;3602879;80;99102;-85
2022/01/19 08:47:58;;;;;;;29.80;11.78;;;;;;;3.27;100.00;101433.73;3619211;81;98966;-85
2022/01/19 08:52:59;;;;;;;25.12;11.50;;;;;;;3.31;100.00;101440.18;3587154;81;98672;-85
2022/01/19 08:58:01;;;;;;;28.60;13.93;;;;;;;3.33;100.00;101427.06;3596891;81;99222;-85
2022/01/19 09:03:01;;;;;;;29.45;15.58;;;;;;;3.37;100.00;101417.73;3565835;80;98932;-85
2022/01/19 09:08:03;;;;;;;34.63;16.37;;;;;;;3.41;100.00;101406.50;3565456;81;99388;-85
2022/01/19 09:13:04;;;;;;;32.33;14.30;;;;;;;3.43;100.00;101399.64;3578153;81;99332;-85
2022/01/19 09:18:05;;;;;;;34.03;16.00;;;;;;;3.45;100.00;101394.69;3595322;81;99122;-83
2022/01/19 09:23:06;;;;;;;29.30;14.87;;;;;;;3.49;100.00;101401.71;3586955;81;98635;-84
2022/01/19 09:28:08;;;;;;;29.10;15.07;;;;;;;3.50;100.00;101405.46;3558688;81;98714;-84
2022/01/19 09:33:11;;;;;;;30.57;14.27;;;;;;;3.53;100.00;101385.81;3557355;81;99287;-85
2022/01/19 09:38:12;;;;;;;32.00;15.65;;;;;;;3.58;100.00;101391.14;3565640;81;99140;-86
2022/01/19 09:43:14;;;;;;;31.80;14.63;;;;;;;3.64;100.00;101387.19;3572663;81;99410;-85
2022/01/19 09:48:15;;;;;;;34.30;15.30;;;;;;;3.67;100.00;101371.59;3578097;80;99081;-83
2022/01/19 09:53:16;;;;;;;37.33;17.03;;;;;;;3.72;100.00;101359.22;3570064;81;99086;-85
2022/01/19 09:58:22;;;;;;;34.40;15.47;;;;;;;3.76;100.00;101349.91;3548614;81;98716;-85
2022/01/19 10:03:29;;;;;;;34.13;16.37;;;;;;;3.82;100.00;101352.17;3558344;81;98885;-84
2022/01/19 10:08:47;;;;;;;34.27;17.50;;;;;;;3.89;100.00;101357.19;3553943;81;99321;-84
2022/01/19 10:19:15;;;;;;;33.80;15.43;;;;;;;3.96;100.00;101338.48;3553822;81;99072;-85
2022/01/19 10:24:16;;;;;;;29.03;15.87;;;;;;;4.05;100.00;101342.08;3570688;81;99140;-85
2022/01/19 10:29:18;;;;;;;27.07;13.77;;;;;;;4.08;100.00;101327.28;3563163;81;99072;-84
2022/01/19 10:34:23;;;;;;;27.23;13.83;;;;;;;4.16;100.00;101324.36;3581172;81;25961;-84
2022/01/19 10:39:28;;;;;;;25.32;14.33;;;;;;;4.21;100.00;101323.65;3566941;81;99089;-84
2022/01/19 10:44:38;;;;;;;27.37;14.93;;;;;;;4.26;100.00;101309.89;3576867;81;98920;-84
2022/01/19 10:49:55;;;;;;;28.90;14.13;;;;;;;4.36;100.00;101291.13;3571482;81;99185;-84
2022/01/19 10:54:57;;;;;;;34.05;17.15;;;;;;;4.44;100.00;101287.06;3576172;81;99016;-85
2022/01/19 11:00:29;;;;;;;32.65;16.02;;;;;;;4.50;100.00;101272.17;3568065;81;99131;-85
2022/01/19 11:05:49;;;;;;;26.23;13.70;;;;;;;4.49;100.00;101249.31;3586661;81;99137;-87
2022/01/19 11:10:53;;;;;;;23.20;12.50;;;;;;;4.51;100.00;101234.80;3576582;80;99163;-85
2022/01/19 11:15:57;;;;;;;28.12;14.53;;;;;;;4.52;100.00;101238.58;3585837;81;98733;-85
2022/01/19 11:21:10;;;;;;;26.97;14.28;;;;;;;4.56;100.00;101223.75;3582712;80;99112;-85
2022/01/19 11:26:22;;;;;;;29.32;14.93;;;;;;;4.58;100.00;101208.68;3587280;81;99000;-86
2022/01/19 11:31:31;;;;;;;25.60;15.38;;;;;;;4.57;100.00;101189.91;3561030;81;99141;-85
2022/01/19 11:36:42;;;;;;;32.30;16.60;;;;;;;4.65;100.00;101179.02;3579559;81;99026;-85
2022/01/19 11:41:54;;;;;;;31.48;16.07;;;;;;;4.76;100.00;101180.89;3576907;81;99587;-85
2022/01/19 11:46:59;;;;;;;31.50;17.25;;;;;;;4.83;99.82;101171.11;3576339;81;25674;-85
2022/01/19 11:52:00;;;;;;;29.20;15.07;;;;;;;4.82;100.00;101157.23;3567594;81;98845;-85
2022/01/19 11:57:06;;;;;;;27.10;15.60;;;;;;;4.84;100.00;101149.53;3582487;81;98918;-85
2022/01/19 12:02:35;;;;;;;28.47;14.67;;;;;;;4.81;99.44;101135.73;3574837;81;98961;-85
2022/01/19 12:07:57;;;;;;;25.93;14.77;;;;;;;4.74;99.02;101134.84;3579890;81;99120;-85
2022/01/19 12:18:49;;;;;;;26.93;15.10;;;;;;;4.69;98.65;101087.29;3570412;81;99015;-84
2022/01/19 12:23:50;;;;;;;26.77;14.97;;;;;;;4.64;98.71;101075.18;3581907;81;98836;-85
2022/01/19 12:28:54;;;;;;;26.20;14.03;;;;;;;4.62;99.01;101051.54;3574684;81;98899;-86
2022/01/19 12:34:16;;;;;;;26.57;14.73;;;;;;;4.61;98.91;101037.67;3585718;80;98732;-83
2022/01/19 12:39:32;;;;;;;25.72;14.85;;;;;;;4.62;98.93;101018.02;3595281;80;98830;-84
2022/01/19 12:44:44;;;;;;;32.20;15.87;;;;;;;4.63;99.06;101001.34;3599741;81;98777;-83
2022/01/19 12:49:46;;;;;;;31.65;16.82;;;;;;;4.69;99.06;100997.90;3585351;81;98919;-84
2022/01/19 12:54:48;;;;;;;29.42;17.23;;;;;;;4.76;99.13;100983.20;3586104;81;99295;-85
2022/01/19 12:59:54;;;;;;;31.85;16.62;;;;;;;4.80;98.94;100973.25;3588899;81;98851;-83
2022/01/19 13:05:05;;;;;;;33.33;17.80;;;;;;;4.85;99.27;100962.17;3599008;81;25733;-83
2022/01/19 13:15:21;;;;;;;32.85;18.30;;;;;;;4.96;98.91;100934.78;3585686;81;98751;-83
2022/01/19 13:20:23;;;;;;;33.00;17.40;;;;;;;5.02;98.99;100919.25;3557293;81;99018;-84
2022/01/19 13:25:31;;;;;;;32.73;17.50;;;;;;;5.06;98.82;100909.84;3579005;80;98120;-84
2022/01/19 13:30:34;;;;;;;33.07;18.43;;;;;;;5.09;98.78;100903.19;3583839;81;99327;-84
2022/01/19 13:35:36;;;;;;;31.97;16.80;;;;;;;5.10;98.87;100891.14;3590969;81;99033;-84
2022/01/19 13:40:39;;;;;;;32.15;17.02;;;;;;;5.12;98.25;100884.00;3591341;81;98845;-83
2022/01/19 13:50:47;;;;;;;28.20;16.60;;;;;;;5.13;98.19;100846.03;3611507;80;98837;-85
2022/01/19 13:55:48;;;;;;;27.45;14.33;;;;;;;5.13;98.07;100831.80;3575000;81;99800;-84
2022/01/19 14:00:56;;;;;;;29.40;14.50;;;;;;;5.15;98.25;100821.38;3567099;81;99284;-84
2022/01/19 14:05:57;;;;;;;25.57;12.98;;;;;;;5.16;98.29;100815.34;3573483;81;98900;-85
2022/01/19 14:10:59;;;;;;;29.27;13.27;;;;;;;5.17;98.08;100811.48;3568754;81;99031;-85
2022/01/19 14:16:24;;;;;;;24.12;12.43;;;;;;;5.14;97.67;100808.84;3554557;81;98947;-86
2022/01/19 14:21:25;;;;;;;29.18;13.45;;;;;;;5.12;97.41;100807.61;3548526;81;99087;-84
2022/01/19 14:26:27;;;;;;;28.83;14.07;;;;;;;5.11;97.59;100801.89;3565631;81;98969;-84
2022/01/19 14:31:28;;;;;;;32.80;15.87;;;;;;;5.09;97.49;100792.70;3563533;81;99499;-85
2022/01/19 14:36:29;;;;;;;33.57;17.93;;;;;;;5.07;97.39;100788.12;3562477;81;98867;-86
2022/01/19 14:41:33;;;;;;;35.50;17.60;;;;;;;5.04;97.38;100785.27;3588900;80;99143;-84
2022/01/19 14:47:04;;;;;;;34.73;17.35;;;;;;;5.00;97.48;100762.50;3557500;81;25698;-84
2022/01/19 14:51:50;;;;;;;34.18;16.85;;;;;;;4.96;97.39;100750.67;3573283;80;99061;-85
2022/01/19 14:56:51;;;;;;;28.30;14.83;;;;;;;4.89;97.13;100749.02;3575127;81;98626;-84
2022/01/19 15:01:57;;;;;;;30.33;15.63;;;;;;;4.82;97.08;100726.94;3598481;80;99142;-82
2022/01/19 15:07:00;;;;;;;29.23;15.03;;;;;;;4.77;97.13;100701.23;3589801;81;98222;-83
2022/01/19 15:12:02;;;;;;;31.77;16.97;;;;;;;4.71;96.91;100687.56;3573420;81;99192;-83
2022/01/19 15:17:03;;;;;;;37.73;17.77;;;;;;;4.64;96.83;100676.39;3579251;81;33047;-84
2022/01/19 15:22:05;;;;;;;34.80;16.27;;;;;;;4.55;96.88;100658.73;3588202;81;98808;-85
2022/01/19 15:27:05;;;;;;;35.00;17.10;;;;;;;4.48;96.71;100638.00;3596752;81;98742;-86
2022/01/19 15:32:07;;;;;;;30.33;15.50;;;;;;;4.41;96.44;100613.22;3590836;81;98755;-83
2022/01/19 15:37:08;;;;;;;28.27;15.50;;;;;;;4.35;96.47;100610.45;3578707;81;98924;-84
2022/01/19 15:42:09;;;;;;;44.73;21.60;;;;;;;4.27;96.63;100577.83;3579125;81;98794;-84
2022/01/19 15:47:12;;;;;;;34.93;17.07;;;;;;;4.20;96.77;100568.81;3572652;81;99253;-83
2022/01/19 15:52:13;;;;;;;34.13;17.63;;;;;;;4.14;96.97;100574.80;3559461;81;98723;-82
2022/01/19 15:57:13;;;;;;;35.20;18.03;;;;;;;4.09;97.19;100579.86;3572693;81;98701;-82
2022/01/19 16:02:14;;;;;;;35.40;19.03;;;;;;;4.02;97.34;100578.78;3534866;81;98863;-84
2022/01/19 16:07:15;;;;;;;42.03;20.95;;;;;;;3.97;97.44;100583.86;3531272;81;98972;-84
2022/01/19 16:12:16;;;;;;;38.80;20.02;;;;;;;3.93;97.48;100571.25;3566296;81;98918;-84
2022/01/19 16:17:17;;;;;;;40.37;20.60;;;;;;;3.86;97.61;100542.36;3563501;81;98805;-83
2022/01/19 16:27:40;;;;;;;55.38;28.67;;;;;;;3.76;97.87;100535.37;3548279;81;98761;-84
2022/01/19 16:32:41;;;;;;;45.63;23.80;;;;;;;3.71;98.00;100523.90;3541885;80;99040;-84
2022/01/19 16:37:42;;;;;;;42.87;21.43;;;;;;;3.64;98.12;100513.52;3545852;81;98805;-85
2022/01/19 16:42:43;;;;;;;44.97;21.80;;;;;;;3.59;98.23;100505.54;3537882;81;98888;-84
2022/01/19 16:47:47;;;;;;;39.33;20.37;;;;;;;3.53;98.41;100502.77;3553135;81;98792;-84
2022/01/19 16:52:46;;;;;;;45.50;21.97;;;;;;;3.48;98.49;100490.72;3564776;81;98713;-84
2022/01/19 16:57:47;;;;;;;44.00;21.87;;;;;;;3.40;98.63;100482.05;3603371;81;98657;-85
2022/01/19 17:02:48;;;;;;;52.27;24.67;;;;;;;3.26;99.05;100450.74;3557410;81;99024;-84
2022/01/19 17:07:49;;;;;;;42.53;22.90;;;;;;;3.26;99.05;100450.74;3556416;81;99298;-83
2022/01/19 17:12:54;;;;;;;45.87;23.47;;;;;;;3.19;99.03;100443.12;3565981;80;98796;-83
2022/01/19 17:17:55;;;;;;;49.70;23.77;;;;;;;3.13;99.21;100434.10;3593336;81;98764;-83
2022/01/19 17:22:57;;;;;;;46.68;22.80;;;;;;;3.06;99.19;100428.39;3537489;81;98711;-85
2022/01/19 17:27:58;;;;;;;48.73;21.52;;;;;;;2.98;99.15;100416.97;3569458;81;98622;-84
2022/01/19 17:33:00;;;;;;;41.33;20.97;;;;;;;2.91;98.93;100420.22;3564439;81;99002;-85
2022/01/19 17:38:02;;;;;;;39.63;19.80;;;;;;;2.85;98.64;100424.22;3542570;81;98837;-85
2022/01/19 17:43:03;;;;;;;39.78;18.62;;;;;;;2.80;98.20;100416.81;3542606;81;99252;-84
2022/01/19 17:48:18;;;;;;;33.70;16.33;;;;;;;2.72;97.83;100411.65;3554653;80;98713;-86
2022/01/19 17:53:07;;;;;;;32.00;17.00;;;;;;;2.66;97.37;100403.98;3545281;81;99306;-84
2022/01/19 17:58:09;;;;;;;31.40;16.00;;;;;;;2.61;96.62;100406.33;3552022;81;33021;-85
2022/01/19 18:03:10;;;;;;;28.53;14.80;;;;;;;2.56;96.85;100389.42;3549982;81;98884;-85
2022/01/19 18:08:11;;;;;;;27.87;14.97;;;;;;;2.52;96.60;100383.04;3564897;81;99367;-86
2022/01/19 18:13:12;;;;;;;27.67;15.00;;;;;;;2.50;96.50;100368.42;3564271;81;99242;-85
2022/01/19 18:18:14;;;;;;;32.20;16.73;;;;;;;2.51;96.59;100370.58;3558042;81;108515;-85
2022/01/19 18:23:15;;;;;;;30.70;17.40;;;;;;;2.52;96.50;100350.44;3511900;82;98210;-85
2022/01/19 18:28:16;;;;;;;29.37;15.37;;;;;;;2.53;96.44;100341.17;3566960;81;98942;-84
2022/01/19 18:33:19;;;;;;;29.83;15.90;;;;;;;2.55;96.59;100339.72;3586744;80;98661;-82
2022/01/19 18:38:26;;;;;;;30.77;16.23;;;;;;;2.58;96.60;100317.90;3557441;80;98944;-86
2022/01/19 18:43:30;;;;;;;28.50;15.70;;;;;;;2.60;96.48;100306.13;3558006;80;98868;-84
2022/01/19 18:48:32;;;;;;;26.70;13.88;;;;;;;2.64;96.73;100307.08;3557470;81;98842;-84
2022/01/19 18:53:34;;;;;;;30.10;14.90;;;;;;;2.66;96.71;100297.48;3575752;81;98810;-84
2022/01/19 18:58:37;;;;;;;29.77;15.90;;;;;;;2.69;96.87;100286.52;3562506;81;98857;-83
2022/01/19 19:03:39;;;;;;;28.77;16.23;;;;;;;2.73;96.74;100283.39;3552896;81;98709;-83
2022/01/19 19:08:42;;;;;;;35.58;18.50;;;;;;;2.74;96.75;100265.38;3584175;81;98767;-83
2022/01/19 19:13:44;;;;;;;26.03;15.47;;;;;;;2.74;96.87;100255.86;3566877;81;98842;-83
2022/01/19 19:18:44;;;;;;;29.43;15.97;;;;;;;2.76;96.85;100259.62;3544778;81;99272;-84
2022/01/19 19:23:45;;;;;;;30.80;17.43;;;;;;;2.76;96.68;100241.41;3543808;81;98865;-84
2022/01/19 19:28:46;;;;;;;33.20;16.30;;;;;;;2.77;96.61;100238.92;3531068;81;98807;-84
2022/01/19 19:33:47;;;;;;;31.00;16.17;;;;;;;2.76;96.70;100229.18;3558155;81;98797;-85
2022/01/19 19:38:48;;;;;;;31.77;16.83;;;;;;;2.78;96.55;100227.50;3548614;81;98705;-84
2022/01/19 19:43:49;;;;;;;29.90;16.83;;;;;;;2.75;96.69;100211.29;3547803;80;99269;-85
2022/01/19 19:48:50;;;;;;;32.93;17.27;;;;;;;2.72;96.44;100209.22;3560540;81;98873;-84
2022/01/19 19:53:51;;;;;;;29.60;16.13;;;;;;;2.72;96.55;100197.55;3586704;81;98872;-85
2022/01/19 19:58:52;;;;;;;36.07;17.53;;;;;;;2.70;96.57;100187.58;3573760;80;98844;-86
2022/01/19 20:03:53;;;;;;;30.47;17.57;;;;;;;2.65;96.55;100179.07;3563837;81;98649;-85
2022/01/19 20:08:55;;;;;;;27.67;15.67;;;;;;;2.63;96.51;100171.02;3544445;81;98806;-83
2022/01/19 20:13:59;;;;;;;31.05;17.17;;;;;;;2.63;96.53;100156.08;3553236;81;98799;-83
2022/01/19 20:18:59;;;;;;;29.60;16.30;;;;;;;2.60;96.65;100153.45;3542794;81;98755;-82
2022/01/19 20:24:00;;;;;;;31.63;15.70;;;;;;;2.60;96.58;100149.93;3559851;81;98779;-83
2022/01/19 20:29:00;;;;;;;29.87;15.95;;;;;;;2.58;96.56;100143.47;3578755;80;98838;-85
2022/01/19 20:34:02;;;;;;;32.47;18.10;;;;;;;2.58;96.70;100131.24;3573759;81;99093;-83
2022/01/19 20:39:03;;;;;;;29.13;15.30;;;;;;;2.59;96.60;100126.62;3558520;81;99070;-83
2022/01/19 20:44:05;;;;;;;27.47;15.37;;;;;;;2.57;96.73;100114.72;3556143;81;98828;-86
2022/01/19 20:49:07;;;;;;;27.47;16.33;;;;;;;2.58;96.70;100095.92;3535013;81;98853;-84
2022/01/19 20:54:08;;;;;;;23.60;14.37;;;;;;;2.61;96.68;100095.28;3531056;81;98818;-84
2022/01/19 20:59:09;;;;;;;30.43;16.40;;;;;;;2.62;96.74;100071.05;3514746;82;98809;-83
2022/01/19 21:04:13;;;;;;;29.57;15.90;;;;;;;2.64;96.85;100065.30;3514153;82;31453;-82
2022/01/19 21:09:13;;;;;;;26.40;14.83;;;;;;;2.66;96.76;100054.88;3515482;82;99069;-83
2022/01/19 21:14:14;;;;;;;30.07;15.77;;;;;;;2.67;96.80;100053.20;3529880;81;98847;-83
2022/01/19 21:19:15;;;;;;;26.90;14.27;;;;;;;2.70;96.87;100041.67;3509306;82;99235;-82
2022/01/19 21:24:15;;;;;;;25.17;13.53;;;;;;;2.73;96.78;100034.20;3514304;82;98929;-81
2022/01/19 21:29:16;;;;;;;23.47;12.93;;;;;;;2.75;96.70;100025.72;3520383;82;99104;-82
2022/01/19 21:34:17;;;;;;;22.00;11.57;;;;;;;2.78;96.76;100016.33;3515054;82;30556;-83
2022/01/19 21:39:18;;;;;;;21.93;12.00;;;;;;;2.81;96.72;100008.88;3438322;82;99094;-84
2022/01/19 21:44:21;;;;;;;21.93;11.13;;;;;;;2.87;96.25;99995.86;3509334;82;98863;-83
2022/01/19 21:49:22;;;;;;;22.67;11.57;;;;;;;2.93;95.82;99981.72;3505380;82;98850;-84
2022/01/19 21:54:23;;;;;;;22.37;10.93;;;;;;;2.96;95.87;99970.75;3554927;81;98681;-83
2022/01/19 21:59:24;;;;;;;22.20;11.00;;;;;;;2.99;95.60;99964.62;3586980;80;98759;-84
2022/01/19 22:04:25;;;;;;;21.13;10.87;;;;;;;2.98;95.77;99954.88;3575280;81;29648;-86
2022/01/19 22:09:28;;;;;;;17.80;9.80;;;;;;;3.01;95.47;99950.14;3558896;81;98757;-83
2022/01/19 22:14:29;;;;;;;20.60;10.53;;;;;;;3.02;95.17;99939.49;3568207;81;98402;-82
2022/01/19 22:19:32;;;;;;;23.13;10.70;;;;;;;3.03;95.26;99914.70;3563177;81;98791;-82
2022/01/19 22:24:34;;;;;;;22.10;11.33;;;;;;;3.04;95.01;99911.39;3554106;81;98704;-81
2022/01/19 22:29:34;;;;;;;18.42;10.15;;;;;;;3.03;94.96;99886.71;3557397;81;98792;-83
2022/01/19 22:34:36;;;;;;;22.40;11.40;;;;;;;3.03;95.07;99903.02;3564205;81;32400;-84
2022/01/19 22:39:37;;;;;;;21.87;10.90;;;;;;;3.02;95.02;99888.66;3557453;81;98674;-82
2022/01/19 22:44:38;;;;;;;23.53;11.10;;;;;;;3.03;95.24;99893.51;3597577;81;98516;-83
2022/01/19 22:49:39;;;;;;;18.20;11.40;;;;;;;3.03;95.29;99890.78;3581743;81;98686;-91
2022/01/19 22:54:41;;;;;;;20.63;10.73;;;;;;;3.03;95.47;99871.20;3589209;81;98780;-83
2022/01/19 22:59:42;;;;;;;22.13;11.97;;;;;;;3.04;95.57;99880.94;3583452;81;98719;-83
2022/01/19 23:04:43;;;;;;;19.27;10.57;;;;;;;2.86;96.03;99850.25;3582795;81;31629;-83
2022/01/19 23:09:43;;;;;;;21.07;10.87;;;;;;;3.01;96.45;99853.66;3578013;81;98477;-83
2022/01/19 23:14:44;;;;;;;23.53;11.40;;;;;;;2.98;96.79;99842.89;3586692;81;98631;-83
2022/01/19 23:19:45;;;;;;;23.57;12.45;;;;;;;2.96;97.28;99828.05;3575428;81;98700;-83
2022/01/19 23:24:47;;;;;;;23.73;12.03;;;;;;;2.92;97.83;99819.80;3599664;80;98716;-82
2022/01/19 23:29:48;;;;;;;24.23;12.67;;;;;;;2.89;98.24;99808.23;3602510;80;99031;-83
2022/01/19 23:34:50;;;;;;;23.20;12.53;;;;;;;2.88;98.95;99799.86;3604188;81;30678;-83
2022/01/19 23:50:15;;;;;;;22.98;12.95;;;;;;;2.84;100.00;99754.12;3595197;81;98650;-82
2022/01/19 23:55:18;;;;;;;22.50;11.95;;;;;;;2.86;100.00;99757.86;3583625;81;98830;-82
